Beaufort, SC

2:14 PM EDT on May 27, 2015 (GMT -0400)
Beaufort Marine Corps Air Station | | Change Station
CLOSE
Current Station
Airport
Location: Beaufort MCAS,
Elevation: 39 ft
Nearby Weather Stations

Elev 39 ft 32.48 °N, 80.72 °W | Updated 18 minutes ago

Partly Cloudy
Partly Cloudy
88 °F
Feels Like 92 °F
N
6
Wind Variable Wind from SSE

Today
High -- | Low -- °F
--% Chance of Precip.
Yesterday
High -- | Low -- °F
Precip. -- in
6:18 AM 8:21 PM
Waxing Gibbous, 69% visible
Pressure 30.24 in
Visibility 10.0 miles
Clouds Scattered Clouds 4000 ft
Mostly Cloudy 25000 ft
Heat Index 92 °F
Dew Point 69 °F
Humidity 53%
Rainfall 0.00 in
Snow Depth Not available.
UV 7 out of 12
Pollen 5.80 out of 12
Air Quality Not available.
Flu Activity Local Activity
METAR KNBC 271756Z COR 15005KT 10SM SCT040 BKN250 31/21 A3024 RMK AO2 SLP240 T03110206 10317 20256 58007 $

More Conditions Fewer Conditions

Pressure 30.24 in
Visibility 10.0 miles
Clouds Scattered Clouds 4000 ft
Mostly Cloudy 25000 ft
Heat Index 92 °F
Dew Point 69 °F
Humidity 53%
Rainfall 0.00 in
Snow Depth Not available.
UV 7 out of 12
Pollen 5.80 out of 12
Air Quality Not available.
Flu Activity Local Activity
METAR KNBC 271756Z COR 15005KT 10SM SCT040 BKN250 31/21 A3024 RMK AO2 SLP240 T03110206 10317 20256 58007 $

More Conditions Fewer Conditions

10-Day Weather Forecast

Almanac

Astronomy

May. 27, 2015 Rise Set
Actual Time
Civil Twilight
Nautical Twilight
Astronomical Twilight
Moon
Length of Visible Light
Length of Day
Tomorrow will be .
, % of the Moon is Illuminated

Today's Extremes

State Highs State Lows

Community

WunderPhotos

Upload Photos

1,824,744 photos uploaded!

WunderBlogs® & News

Nearby

Air Quality

  Air Quality AQ Index Pollutant
Not available.

Snow Depth

Station Depth Elevation

Earthquake Activity

City Distance Mag. Time & Date
Minimum magnitude displayed is 2.5.

Coastal Water Temperatures

Place Temperature

Stations

Nearby Weather Stations

Station Location Temp. Windchill Dew Point Humidity Wind Precip. Elev Updated Type